createdAt,value
2023-05-10T00:01:00.907Z,11.7135
2023-05-10T00:02:04.160Z,11.7102
2023-05-10T00:03:07.643Z,11.7084
2023-05-10T00:04:10.870Z,11.7079
2023-05-10T00:05:14.129Z,11.7076
2023-05-10T00:06:15.490Z,11.7052
2023-05-10T00:07:18.723Z,11.7057
2023-05-10T00:08:22.157Z,11.7053
2023-05-10T00:09:25.376Z,11.7060
2023-05-10T00:10:28.616Z,11.7045
2023-05-10T00:11:32.021Z,11.7061
2023-05-10T00:12:35.228Z,11.7078
2023-05-10T00:13:38.892Z,11.7094
2023-05-10T00:14:42.086Z,11.7108
2023-05-10T00:15:45.311Z,11.7107
2023-05-10T00:16:48.690Z,11.7097
2023-05-10T00:17:51.938Z,11.7108
2023-05-10T00:18:55.383Z,11.7092
2023-05-10T00:19:58.609Z,11.7051
2023-05-10T00:21:02.058Z,11.7021
2023-05-10T00:22:05.292Z,11.6976
2023-05-10T00:23:08.538Z,11.6928
2023-05-10T00:24:11.972Z,11.6903
2023-05-10T00:25:15.203Z,11.6868
2023-05-10T00:26:18.622Z,11.6850
2023-05-10T00:27:21.851Z,11.6798
2023-05-10T00:28:25.078Z,11.6752
2023-05-10T00:29:28.316Z,11.6704
2023-05-10T00:30:31.543Z,11.6673
2023-05-10T00:31:35.117Z,11.6618
2023-05-10T00:32:38.354Z,11.6561
2023-05-10T00:33:41.593Z,11.6509
2023-05-10T00:34:44.829Z,11.6426
2023-05-10T00:35:48.035Z,11.6359
2023-05-10T00:36:51.309Z,11.6350
2023-05-10T00:37:54.494Z,11.6364
2023-05-10T00:38:55.774Z,11.6404
2023-05-10T00:39:59.052Z,11.6468
2023-05-10T00:41:02.646Z,11.6498
2023-05-10T00:42:05.901Z,11.6544
2023-05-10T00:43:09.117Z,11.6584
2023-05-10T00:44:09.630Z,11.6656
2023-05-10T00:45:12.956Z,11.6709
2023-05-10T00:46:16.604Z,11.6728
2023-05-10T00:47:19.897Z,11.6742
2023-05-10T00:48:23.141Z,11.6762
2023-05-10T00:49:26.397Z,11.6795
2023-05-10T00:50:29.617Z,11.6829
2023-05-10T00:51:32.882Z,11.6881
2023-05-10T00:52:36.124Z,11.6953
2023-05-10T00:53:39.378Z,11.6978
2023-05-10T00:54:42.611Z,11.6960
2023-05-10T00:55:45.835Z,11.6934
2023-05-10T00:56:49.071Z,11.6898
2023-05-10T00:57:52.294Z,11.6848
2023-05-10T00:58:55.743Z,11.6825
2023-05-10T00:59:58.947Z,11.6816
2023-05-10T01:01:02.207Z,11.6775
2023-05-10T01:02:05.791Z,11.6743
2023-05-10T01:03:09.151Z,11.6720
2023-05-10T01:04:12.480Z,11.6652
2023-05-10T01:05:15.749Z,11.6564
2023-05-10T01:06:19.236Z,11.6526
2023-05-10T01:07:22.488Z,11.6460
2023-05-10T01:08:25.709Z,11.6396
2023-05-10T01:09:28.949Z,11.6342
2023-05-10T01:10:32.168Z,11.6287
2023-05-10T01:11:35.687Z,11.6215
2023-05-10T01:12:39.115Z,11.6165
2023-05-10T01:13:42.338Z,11.6075
2023-05-10T01:14:45.562Z,11.5997
2023-05-10T01:15:48.791Z,11.6034
2023-05-10T01:16:51.984Z,11.6071
2023-05-10T01:17:55.220Z,11.6061
2023-05-10T01:18:58.687Z,11.6067
2023-05-10T01:20:01.923Z,11.6091
2023-05-10T01:21:05.110Z,11.6124
2023-05-10T01:22:08.610Z,11.6187
2023-05-10T01:23:11.844Z,11.6273
2023-05-10T01:24:15.034Z,11.6346
2023-05-10T01:25:18.262Z,11.6443
2023-05-10T01:26:21.462Z,11.6568
2023-05-10T01:27:24.688Z,11.6658
2023-05-10T01:28:27.926Z,11.6734
2023-05-10T01:29:31.408Z,11.6782
2023-05-10T01:30:34.616Z,11.6854
2023-05-10T01:31:37.874Z,11.6886
2023-05-10T01:32:41.069Z,11.6927
2023-05-10T01:33:44.320Z,11.6991
2023-05-10T01:34:47.768Z,11.7019
2023-05-10T01:35:51.336Z,11.7029
2023-05-10T01:36:54.549Z,11.7028
2023-05-10T01:37:57.811Z,11.7025
2023-05-10T01:39:01.301Z,11.7031
2023-05-10T01:40:04.566Z,11.7029
2023-05-10T01:41:07.770Z,11.7009
2023-05-10T01:42:10.980Z,11.6988
2023-05-10T01:43:14.226Z,11.6945
2023-05-10T01:44:17.674Z,11.6962
2023-05-10T01:45:20.876Z,11.6955
2023-05-10T01:46:24.139Z,11.6973
2023-05-10T01:47:27.367Z,11.6992
2023-05-10T01:48:30.588Z,11.7028
2023-05-10T01:49:34.053Z,11.7014
2023-05-10T01:50:37.256Z,11.7016
2023-05-10T01:51:41.470Z,11.7020
2023-05-10T01:52:41.005Z,11.7037
2023-05-10T01:53:44.231Z,11.7035
2023-05-10T01:54:47.481Z,11.7063
2023-05-10T01:55:50.697Z,11.7090
2023-05-10T01:56:54.140Z,11.7122
2023-05-10T01:57:57.359Z,11.7109
2023-05-10T01:59:00.548Z,11.7116
2023-05-10T02:00:03.772Z,11.7113
2023-05-10T02:01:07.093Z,11.7135
2023-05-10T02:02:10.308Z,11.7174
2023-05-10T02:03:13.564Z,11.7195
2023-05-10T02:04:16.752Z,11.7193
2023-05-10T02:05:30.849Z,11.7201
2023-05-10T02:06:34.039Z,11.7217
2023-05-10T02:07:37.518Z,11.7216
2023-05-10T02:08:40.744Z,11.7207
2023-05-10T02:09:44.314Z,11.7191
2023-05-10T02:10:47.726Z,11.7161
2023-05-10T02:11:50.932Z,11.7110
2023-05-10T02:12:54.201Z,11.7064
2023-05-10T02:13:57.404Z,11.7036
2023-05-10T02:15:00.640Z,11.6994
2023-05-10T02:16:03.840Z,11.6931
2023-05-10T02:17:07.055Z,11.6904
2023-05-10T02:18:10.368Z,11.6811
2023-05-10T02:19:13.566Z,11.6719
2023-05-10T02:20:17.222Z,11.6714
2023-05-10T02:21:20.597Z,11.6687
2023-05-10T02:22:23.825Z,11.6671
2023-05-10T02:23:27.053Z,11.6691
2023-05-10T02:24:30.248Z,11.6697
2023-05-10T02:25:33.703Z,11.6690
2023-05-10T02:26:36.887Z,11.6668
2023-05-10T02:27:40.392Z,11.6627
2023-05-10T02:28:43.610Z,11.6517
2023-05-10T02:29:46.812Z,11.6386
2023-05-10T02:30:50.009Z,11.6225
2023-05-10T02:31:53.228Z,11.6107
2023-05-10T02:32:56.457Z,11.6035
2023-05-10T02:33:59.644Z,11.5921
2023-05-10T02:35:00.803Z,11.5795
2023-05-10T02:36:04.024Z,11.5666
2023-05-10T02:37:07.241Z,11.5624
2023-05-10T02:38:10.796Z,11.5621
2023-05-10T02:39:13.990Z,11.5660
2023-05-10T02:40:17.462Z,11.5715
2023-05-10T02:41:20.783Z,11.5758
2023-05-10T02:42:24.005Z,11.5757
2023-05-10T02:43:27.233Z,11.5769
2023-05-10T02:44:30.446Z,11.5807
2023-05-10T02:45:33.666Z,11.5827
2023-05-10T02:46:36.894Z,11.5809
2023-05-10T02:47:40.123Z,11.5819
2023-05-10T02:48:43.392Z,11.5816
2023-05-10T02:49:46.595Z,11.5828
2023-05-10T02:50:50.146Z,11.5771
2023-05-10T02:51:53.341Z,11.5710
2023-05-10T02:52:56.823Z,11.5611
2023-05-10T02:54:00.046Z,11.5497
2023-05-10T02:55:03.521Z,11.5392
2023-05-10T02:56:06.714Z,11.5333
2023-05-10T02:57:09.948Z,11.5274
2023-05-10T02:58:13.211Z,11.5252
2023-05-10T02:59:16.466Z,11.5257
2023-05-10T03:00:19.915Z,11.5265
2023-05-10T03:01:23.177Z,11.5254
2023-05-10T03:02:26.403Z,11.5228
2023-05-10T03:03:29.942Z,11.5248
2023-05-10T03:04:33.196Z,11.5293
2023-05-10T03:05:36.382Z,11.5319
2023-05-10T03:06:39.662Z,11.5225
2023-05-10T03:07:42.877Z,11.5115
2023-05-10T03:08:46.058Z,11.5126
2023-05-10T03:09:49.268Z,11.5161
2023-05-10T03:10:52.718Z,11.5218
2023-05-10T03:11:55.923Z,11.5275
2023-05-10T03:12:59.411Z,11.5330
2023-05-10T03:14:02.611Z,11.5380
2023-05-10T03:15:05.851Z,11.5428
2023-05-10T03:16:09.112Z,11.5491
2023-05-10T03:17:12.315Z,11.5557
2023-05-10T03:18:15.507Z,11.5593
2023-05-10T03:19:18.711Z,11.5617
2023-05-10T03:20:20.035Z,11.5665
2023-05-10T03:21:23.255Z,11.5712
2023-05-10T03:22:26.490Z,11.5746
2023-05-10T03:23:29.695Z,11.5782
2023-05-10T03:24:32.922Z,11.5800
2023-05-10T03:25:36.204Z,11.5785
2023-05-10T03:26:39.440Z,11.5781
2023-05-10T03:27:42.650Z,11.5765
2023-05-10T03:28:45.873Z,11.5773
2023-05-10T03:29:49.102Z,11.5779
2023-05-10T03:30:52.451Z,11.5836
2023-05-10T03:31:55.819Z,11.5853
2023-05-10T03:32:59.302Z,11.5825
2023-05-10T03:34:02.582Z,11.5799
2023-05-10T03:35:05.792Z,11.5757
2023-05-10T03:36:09.244Z,11.5688
2023-05-10T03:37:12.485Z,11.5608
2023-05-10T03:38:16.021Z,11.5513
2023-05-10T03:39:19.232Z,11.5391
2023-05-10T03:40:22.673Z,11.5326
2023-05-10T03:41:25.873Z,11.5230
2023-05-10T03:42:29.061Z,11.5093
2023-05-10T03:43:32.498Z,11.5006
2023-05-10T03:44:35.732Z,11.4898
2023-05-10T03:45:39.038Z,11.4753
2023-05-10T03:46:42.501Z,11.4663
2023-05-10T03:47:45.749Z,11.4603
2023-05-10T03:48:48.967Z,11.4560
2023-05-10T03:49:52.199Z,11.4484
2023-05-10T03:50:55.595Z,11.4382
2023-05-10T03:51:58.767Z,11.4306
2023-05-10T03:53:02.223Z,11.4210
2023-05-10T03:54:05.427Z,11.4113
2023-05-10T03:55:08.659Z,11.3993
2023-05-10T03:56:11.897Z,11.3827
2023-05-10T03:57:15.090Z,11.3659
2023-05-10T03:58:18.569Z,11.3558
2023-05-10T03:59:21.785Z,11.3471
2023-05-10T04:00:25.024Z,11.3394
2023-05-10T04:01:28.221Z,11.3372
2023-05-10T04:02:31.545Z,11.3381
2023-05-10T04:03:34.885Z,11.3415
2023-05-10T04:04:38.066Z,11.3479
2023-05-10T04:05:41.302Z,11.3594
2023-05-10T04:06:44.512Z,11.3760
2023-05-10T04:07:47.730Z,11.3871
2023-05-10T04:08:50.959Z,11.3958
2023-05-10T04:09:54.150Z,11.4010
2023-05-10T04:10:57.375Z,11.4064
2023-05-10T04:12:00.602Z,11.4125
2023-05-10T04:13:03.827Z,11.4182
2023-05-10T04:14:07.090Z,11.4216
2023-05-10T04:15:10.296Z,11.4243
2023-05-10T04:16:13.489Z,11.4253
2023-05-10T04:17:16.895Z,11.4264
2023-05-10T04:18:20.381Z,11.4268
2023-05-10T04:19:23.605Z,11.4274
2023-05-10T04:20:26.823Z,11.4273
2023-05-10T04:21:30.268Z,11.4277
2023-05-10T04:22:33.418Z,11.4263
2023-05-10T04:23:36.862Z,11.4231
2023-05-10T04:24:40.082Z,11.4203
2023-05-10T04:25:43.286Z,11.4168
2023-05-10T04:26:46.487Z,11.4172
2023-05-10T04:27:49.735Z,11.4170
2023-05-10T04:28:52.944Z,11.4183
2023-05-10T04:29:56.177Z,11.4184
2023-05-10T04:30:59.437Z,11.4218
2023-05-10T04:32:02.605Z,11.4238
2023-05-10T04:33:05.850Z,11.4248
2023-05-10T04:34:09.324Z,11.4288
2023-05-10T04:35:12.548Z,11.4328
2023-05-10T04:36:15.787Z,11.4347
2023-05-10T04:37:19.033Z,11.4374
2023-05-10T04:38:22.524Z,11.4362
2023-05-10T04:39:25.753Z,11.4384
2023-05-10T04:40:28.992Z,11.4399
2023-05-10T04:41:32.454Z,11.4406
2023-05-10T04:42:35.659Z,11.4433
2023-05-10T04:43:38.882Z,11.4506
2023-05-10T04:44:42.048Z,11.4570
2023-05-10T04:45:45.273Z,11.4609
2023-05-10T04:46:48.798Z,11.4663
2023-05-10T04:47:51.995Z,11.4756
2023-05-10T04:48:55.202Z,11.4821
2023-05-10T04:49:58.422Z,11.4862
2023-05-10T04:51:01.686Z,11.4910
2023-05-10T04:52:04.901Z,11.4950
2023-05-10T04:53:08.156Z,11.4955
2023-05-10T04:54:11.365Z,11.4968
2023-05-10T04:55:14.608Z,11.4977
2023-05-10T04:56:17.836Z,11.5032
2023-05-10T04:57:21.046Z,11.5077
2023-05-10T04:58:24.252Z,11.5133
2023-05-10T04:59:27.716Z,11.5173
2023-05-10T05:00:30.894Z,11.5192
2023-05-10T05:01:34.178Z,11.5166
2023-05-10T05:02:37.483Z,11.5145
2023-05-10T05:03:40.842Z,11.5127
2023-05-10T05:04:44.058Z,11.5098
2023-05-10T05:05:47.285Z,11.5086
2023-05-10T05:06:53.662Z,11.5062
2023-05-10T05:07:53.374Z,11.5059
2023-05-10T05:08:56.639Z,11.5089
2023-05-10T05:09:59.874Z,11.5119
2023-05-10T05:11:03.066Z,11.5115
2023-05-10T05:12:06.294Z,11.5133
2023-05-10T05:13:09.500Z,11.5110
2023-05-10T05:14:12.670Z,11.5106
2023-05-10T05:15:15.907Z,11.5122
2023-05-10T05:16:19.170Z,11.5083
2023-05-10T05:17:22.377Z,11.5036
2023-05-10T05:18:25.599Z,11.5063
2023-05-10T05:19:29.071Z,11.5111
2023-05-10T05:20:32.292Z,11.5138
2023-05-10T05:21:35.490Z,11.5167
2023-05-10T05:22:38.701Z,11.5245
2023-05-10T05:23:41.936Z,11.5348
2023-05-10T05:24:45.137Z,11.5441
2023-05-10T05:25:48.364Z,11.5518
2023-05-10T05:26:51.616Z,11.5599
2023-05-10T05:27:54.837Z,11.5646
2023-05-10T05:28:58.077Z,11.5716
2023-05-10T05:30:01.298Z,11.5759
2023-05-10T05:31:04.473Z,11.5772
2023-05-10T05:32:07.756Z,11.5752
2023-05-10T05:33:11.029Z,11.5781
2023-05-10T05:34:14.211Z,11.5824
2023-05-10T05:35:17.572Z,11.5771
2023-05-10T05:36:20.925Z,11.5797
2023-05-10T05:37:24.154Z,11.5907
2023-05-10T05:38:27.361Z,11.6057
2023-05-10T05:39:30.802Z,11.6240
2023-05-10T05:40:34.003Z,11.6412
2023-05-10T05:41:37.198Z,11.6572
2023-05-10T05:42:40.445Z,11.6671
2023-05-10T05:43:43.690Z,11.6782
2023-05-10T05:44:47.062Z,11.6840
2023-05-10T05:45:50.403Z,11.6795
2023-05-10T05:46:53.614Z,11.6797
2023-05-10T05:47:56.858Z,11.6784
2023-05-10T05:49:00.034Z,11.6784
2023-05-10T05:50:03.316Z,11.6789
2023-05-10T05:51:07.406Z,11.6767
2023-05-10T05:52:07.271Z,11.6763
2023-05-10T05:53:10.492Z,11.6797
2023-05-10T05:54:13.671Z,11.6832
2023-05-10T05:55:17.213Z,11.6902
2023-05-10T05:56:20.492Z,11.7019
2023-05-10T05:57:23.713Z,11.7168
2023-05-10T05:58:26.948Z,11.7292
2023-05-10T05:59:30.202Z,11.7431
2023-05-10T06:00:33.397Z,11.7611
2023-05-10T06:01:36.614Z,11.7791
2023-05-10T06:02:40.010Z,11.7933
2023-05-10T06:03:43.405Z,11.8186
2023-05-10T06:04:46.616Z,11.8418
2023-05-10T06:05:49.872Z,11.8693
2023-05-10T06:06:53.093Z,11.8968
2023-05-10T06:07:56.328Z,11.9200
2023-05-10T06:08:59.576Z,11.9348
2023-05-10T06:10:02.820Z,11.9558
2023-05-10T06:11:05.994Z,11.9828
2023-05-10T06:12:09.547Z,12.0149
2023-05-10T06:13:12.803Z,12.0410
2023-05-10T06:14:16.296Z,12.0665
2023-05-10T06:15:19.504Z,12.0871
2023-05-10T06:16:22.776Z,12.1102
2023-05-10T06:17:26.007Z,12.1398
2023-05-10T06:18:29.235Z,12.1641
2023-05-10T06:19:32.586Z,12.1935
2023-05-10T06:20:35.800Z,12.2230
2023-05-10T06:21:39.036Z,12.2591
2023-05-10T06:22:42.240Z,12.2810
2023-05-10T06:23:45.467Z,12.2899
2023-05-10T06:24:48.709Z,12.3017
2023-05-10T06:25:51.952Z,12.3081
2023-05-10T06:26:55.189Z,12.2930
2023-05-10T06:27:58.547Z,12.2941
2023-05-10T06:29:01.778Z,12.3095
2023-05-10T06:30:12.339Z,12.3198
2023-05-10T06:31:06.812Z,12.3264
2023-05-10T06:32:10.045Z,12.3237
2023-05-10T06:33:13.358Z,12.3151
2023-05-10T06:34:16.603Z,12.3228
2023-05-10T06:35:20.209Z,12.3235
2023-05-10T06:36:23.803Z,12.2953
2023-05-10T06:37:27.075Z,12.2543
2023-05-10T06:38:30.340Z,12.2349
2023-05-10T06:39:33.805Z,12.2206
2023-05-10T06:40:37.053Z,12.2121
2023-05-10T06:41:40.340Z,12.1796
2023-05-10T06:42:43.588Z,12.1529
2023-05-10T06:43:46.815Z,12.1434
2023-05-10T06:44:50.099Z,12.1270
2023-05-10T06:45:53.412Z,12.0901
2023-05-10T06:46:56.672Z,12.0498
2023-05-10T06:47:59.949Z,12.0505
2023-05-10T06:49:03.202Z,12.0639
2023-05-10T06:50:06.458Z,12.0710
2023-05-10T06:51:09.704Z,12.0661
2023-05-10T06:52:13.183Z,12.0343
2023-05-10T06:53:16.709Z,12.0295
2023-05-10T06:54:19.933Z,12.0325
2023-05-10T06:55:23.152Z,12.0307
2023-05-10T06:56:26.380Z,12.0297
2023-05-10T06:57:31.744Z,12.0545
2023-05-10T06:58:31.784Z,12.0762
2023-05-10T06:59:35.167Z,12.1109
2023-05-10T07:00:38.540Z,12.1337
2023-05-10T07:01:41.807Z,12.1356
2023-05-10T07:02:45.037Z,12.1737
2023-05-10T07:03:48.296Z,12.2031
2023-05-10T07:04:51.606Z,12.2374
2023-05-10T07:05:54.808Z,12.2677
2023-05-10T07:06:58.291Z,12.3071
2023-05-10T07:08:01.527Z,12.3475
2023-05-10T07:09:04.802Z,12.3854
2023-05-10T07:10:08.261Z,12.4165
2023-05-10T07:11:11.506Z,12.4590
2023-05-10T07:12:15.868Z,12.5064
2023-05-10T07:13:15.752Z,12.5432
2023-05-10T07:14:19.317Z,12.5983
2023-05-10T07:15:22.572Z,12.6654
2023-05-10T07:16:25.826Z,12.7211
2023-05-10T07:17:29.144Z,12.7768
2023-05-10T07:18:32.493Z,12.7929
2023-05-10T07:19:35.710Z,12.8036
2023-05-10T07:20:38.942Z,12.8018
2023-05-10T07:21:42.186Z,12.8008
2023-05-10T07:22:45.687Z,12.7965
2023-05-10T07:23:48.918Z,12.8225
2023-05-10T07:24:52.176Z,12.8447
2023-05-10T07:25:55.406Z,12.9037
2023-05-10T07:26:58.921Z,12.9717
2023-05-10T07:28:02.147Z,13.0531
2023-05-10T07:29:05.406Z,13.1415
2023-05-10T07:30:08.881Z,13.2251
2023-05-10T07:31:12.151Z,13.3077
2023-05-10T07:32:15.455Z,13.3528
2023-05-10T07:33:18.852Z,13.3834
2023-05-10T07:34:22.114Z,13.3887
2023-05-10T07:35:25.646Z,13.3338
2023-05-10T07:36:28.904Z,13.2911
2023-05-10T07:37:32.162Z,13.2616
2023-05-10T07:38:35.413Z,13.2541
2023-05-10T07:39:38.733Z,13.2317
2023-05-10T07:40:41.968Z,13.1940
2023-05-10T07:41:45.291Z,13.1401
2023-05-10T07:42:48.488Z,13.1212
2023-05-10T07:43:51.747Z,13.1181
2023-05-10T07:44:54.995Z,13.1171
2023-05-10T07:45:58.238Z,13.1189
2023-05-10T07:47:01.478Z,13.1303
2023-05-10T07:48:04.748Z,13.1459
2023-05-10T07:49:08.016Z,13.1735
2023-05-10T07:50:11.260Z,13.2091
2023-05-10T07:51:14.557Z,13.2423
2023-05-10T07:52:17.833Z,13.2637
2023-05-10T07:53:21.139Z,13.2893
2023-05-10T07:54:24.398Z,13.3077
2023-05-10T07:55:27.643Z,13.3146
2023-05-10T07:56:30.866Z,13.3457
2023-05-10T07:57:34.376Z,13.3743
2023-05-10T07:58:37.644Z,13.3932
2023-05-10T07:59:40.882Z,13.4356
2023-05-10T08:00:44.122Z,13.4646
2023-05-10T08:01:47.380Z,13.5085
2023-05-10T08:02:50.967Z,13.5579
2023-05-10T08:03:54.372Z,13.6296
2023-05-10T08:04:57.784Z,13.6996
2023-05-10T08:06:01.028Z,13.7382
2023-05-10T08:07:04.309Z,13.7480
2023-05-10T08:08:07.543Z,13.7971
2023-05-10T08:09:10.791Z,13.8358
2023-05-10T08:10:14.299Z,13.8601
2023-05-10T08:11:17.532Z,13.9057
2023-05-10T08:12:21.066Z,13.9437
2023-05-10T08:13:24.289Z,13.9684
2023-05-10T08:14:27.557Z,13.9767
2023-05-10T08:15:30.819Z,13.9953
2023-05-10T08:16:34.141Z,14.0387
2023-05-10T08:17:37.399Z,14.1068
2023-05-10T08:18:40.726Z,14.1849
2023-05-10T08:19:43.938Z,14.2575
2023-05-10T08:20:47.162Z,14.3206
2023-05-10T08:21:50.471Z,14.3900
2023-05-10T08:22:53.720Z,14.4319
2023-05-10T08:23:56.972Z,14.4992
2023-05-10T08:25:00.195Z,14.5741
2023-05-10T08:26:03.458Z,14.6439
2023-05-10T08:27:06.735Z,14.7091
2023-05-10T08:28:11.335Z,14.7627
2023-05-10T08:29:11.472Z,14.8209
2023-05-10T08:30:14.731Z,14.8829
2023-05-10T08:31:18.008Z,14.9481
2023-05-10T08:32:21.222Z,15.0220
2023-05-10T08:33:24.471Z,15.1079
2023-05-10T08:34:27.878Z,15.1290
2023-05-10T08:35:31.126Z,15.1117
2023-05-10T08:36:34.395Z,15.1190
2023-05-10T08:37:37.635Z,15.1319
2023-05-10T08:38:40.845Z,15.1028
2023-05-10T08:39:44.372Z,15.0826
2023-05-10T08:40:47.591Z,15.0975
2023-05-10T08:41:50.829Z,15.1083
2023-05-10T08:42:54.115Z,15.1157
2023-05-10T08:43:57.394Z,15.1058
2023-05-10T08:45:00.955Z,15.0917
2023-05-10T08:46:04.284Z,15.1060
2023-05-10T08:47:07.730Z,15.1488
2023-05-10T08:48:11.157Z,15.2159
2023-05-10T08:49:14.371Z,15.3142
2023-05-10T08:50:17.639Z,15.4305
2023-05-10T08:51:20.887Z,15.5139
2023-05-10T08:52:24.154Z,15.6155
2023-05-10T08:53:27.391Z,15.7189
2023-05-10T08:54:30.657Z,15.7486
2023-05-10T08:55:34.139Z,15.7661
2023-05-10T08:56:37.366Z,15.7931
2023-05-10T08:57:40.623Z,15.8178
2023-05-10T08:58:43.899Z,15.8029
2023-05-10T08:59:47.103Z,15.7364
2023-05-10T09:00:50.358Z,15.7149
2023-05-10T09:01:53.569Z,15.7730
2023-05-10T09:02:56.846Z,15.8449
2023-05-10T09:04:00.200Z,15.8660
2023-05-10T09:05:03.771Z,15.8515
2023-05-10T09:06:07.065Z,15.7675
2023-05-10T09:07:10.293Z,15.6667
2023-05-10T09:08:13.568Z,15.5668
2023-05-10T09:09:16.851Z,15.4843
2023-05-10T09:10:20.095Z,15.4646
2023-05-10T09:11:23.348Z,15.4575
2023-05-10T09:12:26.568Z,15.4474
2023-05-10T09:13:29.832Z,15.4081
2023-05-10T09:14:33.073Z,15.3602
2023-05-10T09:15:36.570Z,15.2863
2023-05-10T09:16:39.973Z,15.2174
2023-05-10T09:17:43.343Z,15.1544
2023-05-10T09:18:46.655Z,15.0844
2023-05-10T09:19:49.900Z,15.0262
2023-05-10T09:20:53.180Z,14.9903
2023-05-10T09:21:56.393Z,14.9616
2023-05-10T09:22:59.874Z,14.9326
2023-05-10T09:24:03.148Z,14.9159
2023-05-10T09:25:06.391Z,14.9090
2023-05-10T09:26:09.667Z,14.9320
2023-05-10T09:27:12.922Z,14.9730
2023-05-10T09:28:16.492Z,15.0230
2023-05-10T09:29:19.745Z,15.0859
2023-05-10T09:30:23.019Z,15.1477
2023-05-10T09:31:26.332Z,15.2113
2023-05-10T09:32:29.562Z,15.2572
2023-05-10T09:33:32.801Z,15.2725
2023-05-10T09:34:36.048Z,15.2958
2023-05-10T09:35:39.528Z,15.3268
2023-05-10T09:36:42.796Z,15.3555
2023-05-10T09:37:46.632Z,15.3612
2023-05-10T09:38:46.202Z,15.3310
2023-05-10T09:39:49.455Z,15.2818
2023-05-10T09:40:52.728Z,15.2296
2023-05-10T09:41:55.960Z,15.1780
2023-05-10T09:42:59.429Z,15.1232
2023-05-10T09:44:02.682Z,15.0696
2023-05-10T09:45:05.952Z,15.0083
2023-05-10T09:46:09.359Z,14.9457
2023-05-10T09:47:12.612Z,14.8805
2023-05-10T09:48:15.849Z,14.8310
2023-05-10T09:49:19.105Z,14.7873
2023-05-10T09:50:22.387Z,14.7422
2023-05-10T09:51:25.610Z,14.6896
2023-05-10T09:52:28.885Z,14.6422
2023-05-10T09:53:32.275Z,14.6062
2023-05-10T09:54:35.491Z,14.6024
2023-05-10T09:55:38.742Z,14.6268
2023-05-10T09:56:42.015Z,14.6649
2023-05-10T09:57:45.245Z,14.7313
2023-05-10T09:58:48.509Z,14.8323
2023-05-10T09:59:51.732Z,14.9566
2023-05-10T10:00:55.035Z,15.0908
2023-05-10T10:01:58.360Z,15.2146
2023-05-10T10:03:01.585Z,15.3193
2023-05-10T10:04:04.836Z,15.4064
2023-05-10T10:05:08.240Z,15.4944
2023-05-10T10:06:22.700Z,15.5691
2023-05-10T10:07:13.302Z,15.6423
2023-05-10T10:08:16.814Z,15.7086
2023-05-10T10:09:20.058Z,15.7802
2023-05-10T10:10:23.301Z,15.8664
2023-05-10T10:11:26.564Z,15.9924
2023-05-10T10:12:29.805Z,16.1400
2023-05-10T10:13:33.286Z,16.3098
2023-05-10T10:14:36.551Z,16.4599
2023-05-10T10:15:39.778Z,16.5757
2023-05-10T10:16:55.514Z,16.6849
2023-05-10T10:17:44.878Z,16.7870
2023-05-10T10:18:48.167Z,16.8743
2023-05-10T10:19:51.442Z,16.9631
2023-05-10T10:20:52.793Z,17.0166
2023-05-10T10:21:56.063Z,17.0578
2023-05-10T10:22:59.273Z,17.0952
2023-05-10T10:24:02.571Z,17.1272
2023-05-10T10:25:05.839Z,17.1620
2023-05-10T10:26:09.384Z,17.2003
2023-05-10T10:27:12.601Z,17.2448
2023-05-10T10:28:15.869Z,17.2982
2023-05-10T10:29:19.121Z,17.3707
2023-05-10T10:30:22.714Z,17.4579
2023-05-10T10:31:25.988Z,17.5655
2023-05-10T10:32:29.277Z,17.6717
2023-05-10T10:33:32.629Z,17.7626
2023-05-10T10:34:35.888Z,17.8454
2023-05-10T10:35:39.142Z,17.9242
2023-05-10T10:36:42.410Z,17.9921
2023-05-10T10:37:45.642Z,18.0807
2023-05-10T10:38:48.876Z,18.2122
2023-05-10T10:39:52.125Z,18.3701
2023-05-10T10:40:55.383Z,18.5207
2023-05-10T10:41:58.620Z,18.6059
2023-05-10T10:43:02.113Z,18.7079
2023-05-10T10:44:05.348Z,18.8030
2023-05-10T10:45:08.600Z,18.8799
2023-05-10T10:46:11.899Z,18.9898
2023-05-10T10:47:15.168Z,19.1156
2023-05-10T10:48:18.454Z,19.2114
2023-05-10T10:49:21.700Z,19.3306
2023-05-10T10:50:24.952Z,19.4599
2023-05-10T10:51:28.206Z,19.5748
2023-05-10T10:52:31.477Z,19.7153
2023-05-10T10:53:35.067Z,19.8456
2023-05-10T10:54:38.328Z,19.9622
2023-05-10T10:55:41.573Z,20.0475
2023-05-10T10:56:44.836Z,20.1284
2023-05-10T10:57:48.108Z,20.1681
2023-05-10T10:58:51.573Z,20.1135
2023-05-10T10:59:54.803Z,20.0964
2023-05-10T11:00:58.067Z,20.0774
2023-05-10T11:02:01.272Z,20.0441
2023-05-10T11:03:04.539Z,19.8837
2023-05-10T11:04:08.535Z,19.6676
2023-05-10T11:05:08.093Z,19.4592
2023-05-10T11:06:11.344Z,19.2916
2023-05-10T11:07:14.598Z,19.1445
2023-05-10T11:08:15.654Z,18.9664
2023-05-10T11:09:18.919Z,18.7793
2023-05-10T11:10:22.153Z,18.6069
2023-05-10T11:11:25.394Z,18.3475
2023-05-10T11:12:28.673Z,18.0968
2023-05-10T11:13:31.970Z,17.8614
2023-05-10T11:14:35.242Z,17.7198
2023-05-10T11:15:38.491Z,17.6189
2023-05-10T11:16:41.764Z,17.5236
2023-05-10T11:17:45.017Z,17.4225
2023-05-10T11:18:50.271Z,17.3266
2023-05-10T11:19:49.849Z,17.2314
2023-05-10T11:20:53.335Z,17.1424
2023-05-10T11:21:56.602Z,17.0596
2023-05-10T11:22:59.874Z,16.9858
2023-05-10T11:24:03.119Z,16.9249
2023-05-10T11:25:06.366Z,16.8663
2023-05-10T11:26:09.610Z,16.8252
2023-05-10T11:27:12.876Z,16.8009
2023-05-10T11:28:16.158Z,16.7934
2023-05-10T11:29:19.380Z,16.7945
2023-05-10T11:30:22.648Z,16.7855
2023-05-10T11:31:25.976Z,16.8019
2023-05-10T11:32:29.226Z,16.8599
2023-05-10T11:33:32.530Z,16.9762
2023-05-10T11:34:35.823Z,17.1442
2023-05-10T11:35:40.997Z,17.3458
2023-05-10T11:36:41.957Z,17.5497
2023-05-10T11:37:45.181Z,17.7427
2023-05-10T11:38:48.441Z,17.9370
2023-05-10T11:39:51.709Z,18.0941
2023-05-10T11:40:54.970Z,18.1812
2023-05-10T11:41:58.262Z,18.1837
2023-05-10T11:43:01.513Z,18.1893
2023-05-10T11:44:04.735Z,18.2158
2023-05-10T11:45:08.006Z,18.2851
2023-05-10T11:46:11.534Z,18.3382
2023-05-10T11:47:14.789Z,18.3141
2023-05-10T11:48:18.049Z,18.3244
2023-05-10T11:49:21.284Z,18.3458
2023-05-10T11:50:24.530Z,18.3743
2023-05-10T11:51:28.031Z,18.3801
2023-05-10T11:52:31.235Z,18.3783
2023-05-10T11:53:34.493Z,18.3730
2023-05-10T11:54:37.754Z,18.3407
2023-05-10T11:55:41.049Z,18.2584
2023-05-10T11:56:44.302Z,18.1651
2023-05-10T11:57:47.525Z,18.0248
2023-05-10T11:58:50.803Z,17.9176
2023-05-10T11:59:54.065Z,17.8330
2023-05-10T12:00:57.337Z,17.7737
2023-05-10T12:02:00.622Z,17.7300
2023-05-10T12:03:04.063Z,17.7243
2023-05-10T12:04:07.532Z,17.7398
2023-05-10T12:05:11.010Z,17.7903
2023-05-10T12:06:14.292Z,17.8893
2023-05-10T12:07:17.541Z,18.0487
2023-05-10T12:08:20.823Z,18.2589
2023-05-10T12:10:24.041Z,18.8119
2023-05-10T12:11:25.328Z,19.0205
2023-05-10T12:12:28.598Z,19.1676
2023-05-10T12:13:31.870Z,19.2588
2023-05-10T12:14:35.124Z,19.2437
2023-05-10T12:15:38.395Z,19.1002
2023-05-10T12:16:42.067Z,19.0139
2023-05-10T12:17:45.376Z,18.8983
2023-05-10T12:18:48.682Z,18.8168
2023-05-10T12:19:51.918Z,18.7552
2023-05-10T12:20:55.160Z,18.7474
2023-05-10T12:21:58.403Z,18.7262
2023-05-10T12:23:01.640Z,18.6816
2023-05-10T12:24:05.127Z,18.6183
2023-05-10T12:25:08.473Z,18.5851
2023-05-10T12:26:11.746Z,18.5489
2023-05-10T12:27:14.973Z,18.5113
2023-05-10T12:28:18.226Z,18.4938
2023-05-10T12:29:21.457Z,18.4981
2023-05-10T12:30:24.729Z,18.5188
2023-05-10T12:31:28.063Z,18.5465
2023-05-10T12:32:31.404Z,18.6046
2023-05-10T12:33:34.847Z,18.6995
2023-05-10T12:34:38.143Z,18.7864
2023-05-10T12:35:43.090Z,18.8472
2023-05-10T12:36:42.681Z,18.8836
2023-05-10T12:37:45.895Z,18.8931
2023-05-10T12:38:49.202Z,18.8768
2023-05-10T12:39:52.435Z,18.8851
2023-05-10T12:40:55.729Z,18.9023
2023-05-10T12:41:58.928Z,18.9302
2023-05-10T12:43:02.215Z,18.9364
2023-05-10T12:44:03.405Z,18.9256
2023-05-10T12:45:06.657Z,18.9047
2023-05-10T12:46:09.996Z,18.8592